Antioch, Texas
Current Conditions -  °F | °C
As of 11:35 AM on Friday 24 Oct 2014 (Local Time) from KOCH Reporting Station
Clear Clear  
Wind Chill: 21°   Ceiling: Unl
Heat Index: 21°   Visibility: 10mi
Dew Point: 10°   Wind: 5mph
Humidity: 49%   Direction: 90°E
Pressure: 30.2"   Gusts: NA
Location:  31.8636°N, 94.3909°W
Report Text: KOCH 241635Z AUTO 09004KT 10SM CLR 21/10 A3020 RMK AO1
Loading
Personal Weather Stations






























Interactive Weather Map
Tropical Storm Tracking
New forecast layout! Learn more

10-Day Weather Forecast

Advertisements
Track Severe Weather on mobile